METAR v bližini

 

LJLJ - Ljubljana/Brnik, Slovenia
Oddaljenost od postaje: W 41km
Podatki zajeti: 23/01/2019 08:00
Rahel sneg, Oblačno
Rahel sneg, Oblačno
 Veter iz smeri ENE
Veter: ENE 4 km/h
Temperatura: -4°C
Rosišče: -4°C
Vlažnost: 100%
Tlak: 1000 hPa
Stanje: Rahel sneg
Oblačnost: Oblačno
Vidljivost: 6 km
Podrobnosti o oblakih: Oblačno 366 m
2019/01/23 07:00 LJLJ 230700Z 07002KT 6000 -SN OVC012 M04/M04 Q1000 R30/590195 NOSIG
LJMB - Maribor, Slovenia
Oddaljenost od postaje: NE 63km
Podatki zajeti: 23/01/2019 08:00
Rahel sneg, Meglica, Oblačno
Rahel sneg, Meglica, Oblačno
 Veter iz smeri NNE
Veter: NNE 9 km/h
Temperatura: -4°C
Občutek mraza zaradi vetra: -8°C
Rosišče: -6°C
Vlažnost: 86%
Tlak: 1002 hPa
Stanje: Rahel sneg, Meglica
Oblačnost: Oblačno
Vidljivost: 4 km
Podrobnosti o oblakih: Delno oblačno 152 m
Oblačno 701 m
2019/01/23 07:00 LJMB 230700Z 03005KT 4000 -SN BR SCT005 OVC023 M04/M06 Q1002
 
LJPZ - Portoroz, Slovenia
Oddaljenost od postaje: SW 130km
Podatki zajeti: 23/01/2019 08:00
Rahel sneg, Oblačno
Rahel sneg, Oblačno
 Veter iz smeri spremenljiv
Veter: spremenljiv 2 km/h
Temperatura: 1°C
Rosišče: -1°C
Vlažnost: 87%
Tlak: 998 hPa
Stanje: Rahel sneg
Oblačnost: Oblačno
Vidljivost: 10 km
Podrobnosti o oblakih: Delno oblačno 823 m
Oblačno 1219 m
2019/01/23 07:00 LJPZ 230700Z VRB01KT 9999 -SN SCT027 OVC040 01/M01 Q0998
LJCE - Cerklje, Slovenia
Oddaljenost od postaje: ESE 49km
Podatki zajeti: 23/01/2019 08:00
Meglica, Oblačno
Meglica, Oblačno
 Veter iz smeri E
Veter: E 7 km/h
Temperatura: -3°C
Občutek mraza zaradi vetra: -6°C
Rosišče: -5°C
Vlažnost: 86%
Tlak: 1002 hPa
Stanje: Meglica
Oblačnost: Oblačno
Vidljivost: 5 km
Podrobnosti o oblakih: Oblačno 610 m
2019/01/23 07:00 LJCE 230700Z 10004KT 5000 BR OVC020 M03/M05 Q1002 RMK WHT
 
LDZA - Zagreb/Pleso, Croatia
Oddaljenost od postaje: ESE 96km
Podatki zajeti: 23/01/2019 08:00
Rahel sneg, Meglica, Oblačno
Rahel sneg, Meglica, Oblačno
 Veter iz smeri spremenljiv
Veter: spremenljiv 4 km/h
Temperatura: -3°C
Rosišče: -5°C
Vlažnost: 86%
Tlak: 1002 hPa
Stanje: Rahel sneg, Meglica
Oblačnost: Oblačno
Vidljivost: 4 km
Podrobnosti o oblakih: Oblačno 457 m
2019/01/23 07:00 LDZA 230700Z VRB02KT 4000 -SN BR OVC015 M03/M05 Q1002 R05/590295 NOSIG
LDRI - Rijeka/Omisalj, Croatia
Oddaljenost od postaje: SSW 109km
Podatki zajeti: 23/01/2019 08:00
Oblačno
Oblačno
 Veter iz smeri ENE
Veter: ENE 9 km/h
Temperatura: 2°C
Občutek mraza zaradi vetra: -1°C
Rosišče: -5°C
Vlažnost: 60%
Tlak: 999 hPa
Oblačnost: Oblačno
Vidljivost: 10 km
Podrobnosti o oblakih: Oblačno 1524 m
2019/01/23 07:00 LDRI 230700Z 06005KT 9999 OVC050 02/M05 Q0999
 
LDPL - Pula, Croatia
Oddaljenost od postaje: SSW 164km
Podatki zajeti: 23/01/2019 08:00
Pretežno oblačno
Pretežno oblačno
 Veter iz smeri E
Veter: E 9 km/h
Temperatura: 2°C
Občutek mraza zaradi vetra: -1°C
Rosišče: 0°C
Vlažnost: 87%
Tlak: 998 hPa
Oblačnost: Pretežno oblačno
Vidljivost: 10 km
Podrobnosti o oblakih: Delno oblačno 914 m
Pretežno oblačno 1372 m
2019/01/23 07:00 LDPL 230700Z 10005KT 9999 SCT030 BKN045 02/M00 Q0998 NOSIG
LOWK - Klagenfurt(Civ/M, Austria
Oddaljenost od postaje: NW 76km
Podatki zajeti: 23/01/2019 08:20
Rahel sneg, Plohe, Pretežno oblačno
Rahel sneg, Plohe, Pretežno oblačno
 Veter iz smeri NE
Veter: NE 6 km/h
Temperatura: -4°C
Rosišče: -6°C
Vlažnost: 86%
Tlak: 999 hPa
Stanje: Rahel sneg, Plohe
Oblačnost: Pretežno oblačno
Vidljivost: 8 km
Podrobnosti o oblakih: Rahlo oblačno 91 m
Pretežno oblačno 975 m
2019/01/23 07:20 LOWK 230720Z 05003KT 8000 -SHSN FEW003 BKN032 M04/M06 Q0999 R10L/490295 NOSIG
 
LOWG - Graz (mil/Civ), Austria
Oddaljenost od postaje: NNE 100km
Podatki zajeti: 23/01/2019 08:20
Rahel sneg, Meglica, Oblačno
Rahel sneg, Meglica, Oblačno
 Veter iz smeri spremenljiv
Veter: spremenljiv 2 km/h
Temperatura: -5°C
Rosišče: -6°C
Vlažnost: 93%
Tlak: 1001 hPa
Stanje: Rahel sneg, Meglica
Oblačnost: Oblačno
Vidljivost: 3 km
Podrobnosti o oblakih: Rahlo oblačno 91 m
Delno oblačno 610 m
Oblačno 1372 m
2019/01/23 07:20 LOWG 230720Z VRB01KT 2500 R17/P1500N R35/P1500U -SN BR FEW003 SCT020 OVC045 M05/M06 Q1001 R17/490195 BECMG 4000 BR
LOWZ - Zell Am See, Austria
Oddaljenost od postaje: NW 211km
Podatki zajeti: 31/12/2016 17:00
Ni posodobljen
Jasno
Jasno
 Veter iz smeri spremenljiv
Veter: spremenljiv 4 km/h
Temperatura: -4°C
Rosišče: -7°C
Vlažnost: 80%
Tlak: 1031 hPa
Oblačnost: Jasno
2016/12/31 16:00 LOWZ 311600Z VRB02KT 50KM SKC M04/M07 Q1031
 
LOAN - Wr.neustadt East, Austria
Oddaljenost od postaje: NNE 212km
Podatki zajeti: 23/01/2019 08:00
Rahel sneg, Meglica, Oblačno
Rahel sneg, Meglica, Oblačno
 Veter iz smeri spremenljiv
Veter: spremenljiv 4 km/h
Stanje: Rahel sneg, Meglica
Oblačnost: Oblačno
Vidljivost: 1 km
Podrobnosti o oblakih: Oblačno 91 m
2019/01/23 07:00 LOAN 230700Z VRB02KT 1400 -SN BR VV003
LIPQ - Ronchi Legionari, Italy
Oddaljenost od postaje: SW 35km
Podatki zajeti: 23/01/2019 08:20
Rahel sneg, Pretežno oblačno
Rahel sneg, Pretežno oblačno
 Veter iz smeri NE
Veter: NE 7 km/h
Temperatura: 0°C
Občutek mraza zaradi vetra: -3°C
Rosišče: -1°C
Vlažnost: 93%
Tlak: 999 hPa
Stanje: Rahel sneg
Oblačnost: Pretežno oblačno
Vidljivost: 2 km
Podrobnosti o oblakih: Delno oblačno 610 m
Pretežno oblačno 1524 m
2019/01/23 07:20 LIPQ 230720Z 05004KT 2000 -SN SCT020 BKN050 00/M01 Q0999
 
LIVT - Trieste, Italy
Oddaljenost od postaje: WSW 109km
Podatki zajeti: 23/01/2019 07:55

 Veter iz smeri NNE
Veter: NNE 20 km/h, Sunek vetra: 41 km/h
Vidljivost: 5 km
2019/01/23 06:55 LIVT 230655Z 03011G22KT 5000 - SN SCT030 01/M03 Q0998 RMK OVC OVC070 QUK 3 QUL 1 NE VIS MAR 5 KM VIS MIN 5000
LIVO - Tarvisio, Italy
Oddaljenost od postaje: NNW 49km
Podatki zajeti: 23/01/2019 07:55
Oblačno
Oblačno
 Veter iz smeri ESE
Veter: ESE 2 km/h
Temperatura: -6°C
Rosišče: -7°C
Vlažnost: 93%
Tlak: 997 hPa
Oblačnost: Oblačno
Vidljivost: 7 km
Podrobnosti o oblakih: Oblačno 305 m
2019/01/23 06:55 LIVO 230655Z 12001KT 7000 OVC010 M06/M07 Q0997 RMK OVC VIS MIN 7000
 
LIPZ - Venezia/Tessera, Italy
Oddaljenost od postaje: WSW 217km
Podatki zajeti: 23/01/2019 08:20
Pretežno oblačno
Pretežno oblačno
 Veter iz smeri NNW
Veter: NNW 11 km/h
Temperatura: 1°C
Občutek mraza zaradi vetra: -2°C
Rosišče: -1°C
Vlažnost: 87%
Tlak: 999 hPa
Oblačnost: Pretežno oblačno
Vidljivost: 9 km
Podrobnosti o oblakih: Pretežno oblačno 2134 m
2019/01/23 07:20 LIPZ 230720Z 33006KT 9000 BKN070 01/M01 Q0999 NOSIG
LHSM - Balaton, Hungary
Oddaljenost od postaje: ENE 177km
Podatki zajeti: 23/01/2019 07:45
Light freezing, Rosi, Oblačno
Light freezing, Rosi, Oblačno
 Veter iz smeri NNW
Veter: NNW 9 km/h
Temperatura: -4°C
Občutek mraza zaradi vetra: -8°C
Rosišče: -4°C
Vlažnost: 100%
Tlak: 1003 hPa
Stanje: Light freezing, Rosi
Oblačnost: Oblačno
Vidljivost: 2 km
Podrobnosti o oblakih: Oblačno 366 m
2019/01/23 06:45 LHSM 230645Z 33005KT 2000 -FZDZ OVC012 M04/M04 Q1003